createdAt,value
2022-12-15T00:00:35.732Z,48.12
2022-12-15T00:07:33.620Z,47.97
2022-12-15T00:14:34.098Z,48.16
2022-12-15T00:21:31.993Z,48.00
2022-12-15T00:28:29.916Z,48.16
2022-12-15T00:35:30.569Z,48.00
2022-12-15T00:42:15.942Z,47.78
2022-12-15T00:49:02.311Z,47.97
2022-12-15T00:56:02.791Z,48.26
2022-12-15T01:03:00.831Z,47.97
2022-12-15T01:09:58.805Z,47.97
2022-12-15T01:16:59.226Z,48.15
2022-12-15T01:23:45.076Z,48.09
2022-12-15T01:30:31.222Z,48.07
2022-12-15T01:37:19.322Z,48.11
2022-12-15T01:44:22.675Z,48.21
2022-12-15T01:51:26.258Z,48.33
2022-12-15T01:58:17.943Z,48.17
2022-12-15T02:12:18.067Z,48.23
2022-12-15T02:19:33.322Z,48.48
2022-12-15T02:26:48.022Z,48.19
2022-12-15T02:33:36.945Z,48.19
2022-12-15T02:40:22.553Z,48.30
2022-12-15T02:47:28.933Z,48.23
2022-12-15T02:54:51.466Z,48.38
2022-12-15T03:01:41.289Z,48.47
2022-12-15T03:08:27.183Z,48.15
2022-12-15T03:15:15.656Z,48.16
2022-12-15T03:22:01.091Z,48.26
2022-12-15T03:28:46.517Z,48.15
2022-12-15T03:35:36.092Z,48.20
2022-12-15T03:42:41.441Z,47.86
2022-12-15T04:02:52.092Z,48.03
2022-12-15T04:09:37.612Z,47.98
2022-12-15T04:16:23.089Z,48.08
2022-12-15T04:23:11.696Z,48.16
2022-12-15T04:30:09.585Z,48.15
2022-12-15T04:37:10.009Z,47.84
2022-12-15T04:44:10.547Z,48.20
2022-12-15T04:51:08.372Z,47.90
2022-12-15T04:58:06.224Z,47.84
2022-12-15T05:05:06.689Z,48.10
2022-12-15T05:12:04.605Z,47.85
2022-12-15T05:19:02.426Z,47.51
2022-12-15T05:26:02.869Z,47.63
2022-12-15T05:32:48.239Z,47.96
2022-12-15T05:39:36.929Z,48.02
2022-12-15T05:46:24.836Z,47.76
2022-12-15T05:53:10.314Z,48.00
2022-12-15T05:59:55.712Z,48.28
2022-12-15T06:06:44.303Z,48.05
2022-12-15T06:13:32.063Z,47.47
2022-12-15T06:20:17.995Z,47.35
2022-12-15T06:27:06.209Z,47.22
2022-12-15T06:33:57.481Z,47.10
2022-12-15T06:40:46.929Z,47.06
2022-12-15T06:47:35.031Z,47.25
2022-12-15T06:54:20.370Z,47.32
2022-12-15T07:01:09.740Z,47.24
2022-12-15T07:07:58.220Z,47.16
2022-12-15T07:14:46.409Z,47.12
2022-12-15T07:21:38.724Z,47.29
2022-12-15T07:28:26.745Z,47.23
2022-12-15T07:35:13.108Z,46.67
2022-12-15T07:41:58.895Z,46.75
2022-12-15T07:48:50.700Z,46.68
2022-12-15T07:56:05.020Z,46.55
2022-12-15T08:02:44.247Z,46.65
2022-12-15T08:09:33.409Z,46.92
2022-12-15T08:16:18.836Z,46.98
2022-12-15T08:23:04.575Z,47.63
2022-12-15T08:29:52.960Z,48.21
2022-12-15T08:36:38.557Z,48.32
2022-12-15T08:43:24.235Z,48.52
2022-12-15T08:50:13.009Z,48.63
2022-12-15T08:56:58.427Z,48.89
2022-12-15T09:03:43.969Z,48.96
2022-12-15T09:10:32.012Z,49.25
2022-12-15T09:17:17.427Z,49.25
2022-12-15T09:24:04.736Z,49.70
2022-12-15T09:30:52.813Z,49.92
2022-12-15T09:37:38.279Z,50.09
2022-12-15T09:44:26.769Z,50.30
2022-12-15T09:51:20.514Z,50.19
2022-12-15T09:58:17.200Z,50.43
2022-12-15T10:05:16.646Z,50.28
2022-12-15T10:12:12.581Z,50.45
2022-12-15T10:19:07.164Z,50.50
2022-12-15T10:25:57.621Z,50.56
2022-12-15T10:32:53.998Z,50.65
2022-12-15T10:39:41.957Z,50.65
2022-12-15T10:46:30.616Z,50.80
2022-12-15T11:00:52.358Z,51.01
2022-12-15T11:07:43.776Z,51.14
2022-12-15T11:14:47.753Z,51.45
2022-12-15T11:21:41.712Z,51.57
2022-12-15T11:28:35.801Z,51.51
2022-12-15T11:35:32.033Z,51.52
2022-12-15T11:42:27.713Z,51.64
2022-12-15T11:49:59.017Z,51.80
2022-12-15T11:56:53.168Z,51.82
2022-12-15T12:03:54.798Z,51.98
2022-12-15T12:10:50.772Z,51.77
2022-12-15T12:17:45.127Z,52.09
2022-12-15T12:24:38.973Z,52.15
2022-12-15T12:31:36.666Z,52.17
2022-12-15T12:38:32.587Z,52.11
2022-12-15T12:45:18.635Z,51.90
2022-12-15T12:52:07.797Z,52.09
2022-12-15T12:58:55.800Z,52.22
2022-12-15T13:05:42.995Z,51.89
2022-12-15T13:12:52.082Z,52.09
2022-12-15T13:20:27.232Z,52.16
2022-12-15T13:27:17.660Z,52.17
2022-12-15T13:34:20.372Z,52.41
2022-12-15T13:41:26.391Z,52.31
2022-12-15T13:48:28.621Z,52.40
2022-12-15T13:55:27.893Z,52.19
2022-12-15T14:02:34.620Z,52.31
2022-12-15T14:09:28.387Z,52.38
2022-12-15T14:16:22.961Z,52.53
2022-12-15T14:23:22.965Z,52.35
2022-12-15T14:30:25.739Z,52.37
2022-12-15T14:37:16.474Z,52.26
2022-12-15T14:44:32.192Z,52.53
2022-12-15T14:51:17.600Z,52.51
2022-12-15T14:58:03.578Z,52.26
2022-12-15T15:03:06.721Z,51.20
2022-12-15T15:05:07.446Z,52.70
2022-12-15T15:11:57.026Z,52.53
2022-12-15T15:18:42.495Z,52.43
2022-12-15T15:25:40.645Z,52.40
2022-12-15T15:32:26.783Z,52.16
2022-12-15T15:39:20.319Z,52.27
2022-12-15T15:46:13.424Z,52.23
2022-12-15T15:52:59.744Z,52.11
2022-12-15T15:59:46.312Z,51.82
2022-12-15T16:06:34.302Z,52.16
2022-12-15T16:13:26.152Z,52.05
2022-12-15T16:20:13.914Z,51.93
2022-12-15T16:27:02.856Z,52.05
2022-12-15T16:33:48.221Z,52.09
2022-12-15T16:40:34.152Z,51.89
2022-12-15T16:47:22.363Z,51.96
2022-12-15T16:54:08.540Z,51.87
2022-12-15T17:00:54.032Z,51.71
2022-12-15T17:07:43.131Z,51.80
2022-12-15T17:14:28.516Z,51.65
2022-12-15T17:21:18.190Z,51.73
2022-12-15T17:28:07.173Z,51.88
2022-12-15T17:34:52.920Z,51.47
2022-12-15T17:48:47.119Z,52.00
2022-12-15T17:55:35.418Z,51.71
2022-12-15T18:02:21.038Z,51.76
2022-12-15T18:09:17.465Z,51.51
2022-12-15T18:16:04.409Z,51.75
2022-12-15T18:22:51.029Z,51.42
2022-12-15T18:29:39.489Z,51.98
2022-12-15T18:36:26.020Z,51.95
2022-12-15T18:43:18.011Z,51.93
2022-12-15T18:50:08.814Z,51.98
2022-12-15T18:56:54.861Z,51.90
2022-12-15T19:03:41.419Z,52.02
2022-12-15T19:10:32.107Z,51.95
2022-12-15T19:17:32.720Z,51.68
2022-12-15T19:24:42.908Z,51.63
2022-12-15T19:31:31.292Z,51.61
2022-12-15T19:38:28.934Z,51.77
2022-12-15T19:45:20.345Z,51.71
2022-12-15T19:52:12.359Z,51.93
2022-12-15T19:58:58.166Z,51.99
2022-12-15T20:05:43.574Z,51.98
2022-12-15T20:12:31.541Z,52.03
2022-12-15T20:19:16.875Z,51.78
2022-12-15T20:26:02.631Z,51.87
2022-12-15T20:32:51.012Z,51.78
2022-12-15T20:39:37.940Z,51.60
2022-12-15T20:46:27.278Z,51.66
2022-12-15T20:53:22.682Z,52.05
2022-12-15T21:00:13.296Z,52.00
2022-12-15T21:06:59.867Z,51.98
2022-12-15T21:13:49.052Z,52.10
2022-12-15T21:20:35.072Z,51.88
2022-12-15T21:27:20.943Z,51.97
2022-12-15T21:34:09.882Z,52.17
2022-12-15T21:40:59.486Z,52.14
2022-12-15T21:47:57.702Z,52.16
2022-12-15T21:54:45.868Z,52.13
2022-12-15T22:01:33.640Z,52.01
2022-12-15T22:08:22.035Z,52.05
2022-12-15T22:15:18.151Z,51.88
2022-12-15T22:22:03.523Z,51.37
2022-12-15T22:28:49.112Z,51.22
2022-12-15T22:35:37.043Z,51.11
2022-12-15T22:42:22.781Z,51.19
2022-12-15T22:49:08.244Z,51.09
2022-12-15T22:55:56.299Z,51.03
2022-12-15T23:02:46.185Z,50.84
2022-12-15T23:09:31.748Z,50.61
2022-12-15T23:16:23.014Z,50.54
2022-12-15T23:23:08.596Z,50.64
2022-12-15T23:29:53.918Z,50.59
2022-12-15T23:36:42.962Z,50.23
2022-12-15T23:43:31.095Z,50.17
2022-12-15T23:50:16.901Z,50.18
2022-12-15T23:57:05.005Z,50.33
